Time;durP1;ratioP1;P1;durP2;ratioP2;P2;SDS_P1;SDS_P2;PMS_P1;PMS_P2;Temp;Humidity;BMP_temperature;BMP_pressure;BME280_temperature;BME280_humidity;BME280_pressure;Samples;Min_cycle;Max_cycle;Signal;HPM_P1;HPM_P2
2021/04/21 02:47:09;;;;;;;12.73;11.63;;;5.20;99.90;;;;;;5308703;22;88192;-86
2021/04/21 02:50:02;;;;;;;12.47;11.37;;;5.10;99.90;;;;;;4950928;28;88330;-85
2021/04/21 02:52:34;;;;;;;13.20;12.10;;;5.10;99.90;;;;;;4951892;28;88866;-85
2021/04/21 02:55:10;;;;;;;14.15;12.85;;;5.00;99.90;;;;;;4950711;28;86919;-84
2021/04/21 02:58:05;;;;;;;13.60;12.55;;;5.00;99.90;;;;;;4965747;28;86962;-85
2021/04/21 03:00:53;;;;;;;14.60;13.50;;;4.90;99.90;;;;;;4964997;28;87419;-85
2021/04/21 03:03:41;;;;;;;14.70;13.50;;;4.80;99.90;;;;;;4966703;28;87437;-85
2021/04/21 03:06:13;;;;;;;12.02;10.90;;;5.00;99.90;;;;;;4959759;28;87431;-84
2021/04/21 03:08:47;;;;;;;11.85;10.75;;;4.90;99.90;;;;;;4977777;28;85759;-84
2021/04/21 03:11:26;;;;;;;11.25;10.13;;;4.90;99.90;;;;;;4972837;28;87672;-85
2021/04/21 03:14:07;;;;;;;10.60;9.48;;;4.90;99.90;;;;;;4944122;28;89917;-85
2021/04/21 03:16:37;;;;;;;11.65;9.82;;;4.90;99.90;;;;;;4953874;28;87959;-86
2021/04/21 03:19:09;;;;;;;10.02;9.02;;;4.90;99.90;;;;;;4941403;28;86528;-85
2021/04/21 03:21:46;;;;;;;10.82;9.35;;;4.90;99.90;;;;;;4947006;28;86883;-85
2021/04/21 03:24:12;;;;;;;13.02;11.82;;;4.90;99.90;;;;;;4958894;28;88411;-84
2021/04/21 03:26:41;;;;;;;12.80;11.50;;;4.80;99.90;;;;;;4960126;28;86903;-86
2021/04/21 03:29:12;;;;;;;10.98;9.98;;;4.80;99.90;;;;;;4956520;28;87114;-84
2021/04/21 03:31:42;;;;;;;13.18;12.18;;;4.80;99.90;;;;;;4956407;28;87200;-85
2021/04/21 03:34:12;;;;;;;11.98;10.98;;;4.80;99.90;;;;;;4960551;28;86263;-85
2021/04/21 03:36:39;;;;;;;14.35;13.25;;;;;;;;;;4956515;28;87079;-85
2021/04/21 03:39:05;;;;;;;11.35;10.27;;;4.70;99.90;;;;;;4939820;28;86239;-86
2021/04/21 03:41:31;;;;;;;11.50;10.60;;;4.70;99.90;;;;;;4941927;28;89734;-85
2021/04/21 03:43:57;;;;;;;11.82;10.65;;;4.70;99.90;;;;;;4950665;28;87874;-85
2021/04/21 03:46:24;;;;;;;11.88;10.88;;;4.60;99.90;;;;;;4935447;28;87029;-85
2021/04/21 03:48:50;;;;;;;12.02;11.02;;;4.60;99.90;;;;;;4930122;28;87072;-86
2021/04/21 03:51:17;;;;;;;12.82;11.52;;;4.50;99.90;;;;;;4941535;28;87582;-85
2021/04/21 03:53:44;;;;;;;14.63;13.43;;;4.60;99.90;;;;;;4929968;28;87364;-86
2021/04/21 03:56:14;;;;;;;13.30;12.23;;;4.60;99.90;;;;;;4930486;28;86916;-85
2021/04/21 03:58:42;;;;;;;16.45;15.25;;;4.60;99.90;;;;;;4928354;28;86318;-86
2021/04/21 04:01:16;;;;;;;12.48;11.30;;;4.60;99.90;;;;;;4915666;28;87764;-85
2021/04/21 04:03:56;;;;;;;15.88;14.50;;;4.70;99.90;;;;;;4917686;28;86914;-86
2021/04/21 04:06:24;;;;;;;17.40;16.30;;;4.70;99.90;;;;;;4923604;28;87956;-86
2021/04/21 04:08:54;;;;;;;18.58;17.17;;;4.70;99.90;;;;;;4925588;28;87163;-86
2021/04/21 04:11:38;;;;;;;14.07;12.77;;;4.70;99.90;;;;;;4936358;28;88106;-86
2021/04/21 04:14:14;;;;;;;17.27;15.98;;;4.70;99.90;;;;;;4933536;28;86640;-85
2021/04/21 04:16:43;;;;;;;14.15;13.05;;;4.70;99.90;;;;;;4931294;28;86967;-86
2021/04/21 04:19:11;;;;;;;18.20;16.88;;;4.60;99.90;;;;;;4928441;28;86999;-88
2021/04/21 04:21:38;;;;;;;13.45;12.13;;;4.60;99.90;;;;;;4927329;28;87476;-87
2021/04/21 04:24:09;;;;;;;12.18;11.05;;;4.60;99.90;;;;;;4925779;28;90627;-87
2021/04/21 04:26:40;;;;;;;14.77;12.75;;;4.70;99.90;;;;;;4922773;28;86199;-87
2021/04/21 04:29:05;;;;;;;24.05;22.35;;;4.70;99.90;;;;;;4929313;28;86841;-86
2021/04/21 04:31:36;;;;;;;33.38;31.50;;;4.70;99.90;;;;;;4925981;28;87922;-86
2021/04/21 04:34:07;;;;;;;42.95;40.53;;;4.60;99.90;;;;;;4927202;28;88405;-86
2021/04/21 04:36:34;;;;;;;42.90;40.72;;;4.60;99.90;;;;;;4914482;28;86964;-86
2021/04/21 04:39:02;;;;;;;38.25;36.00;;;4.60;99.90;;;;;;4941731;28;86987;-86
2021/04/21 04:41:29;;;;;;;41.83;39.53;;;4.60;99.90;;;;;;4913217;28;86981;-87
2021/04/21 04:43:56;;;;;;;55.95;52.90;;;4.60;99.90;;;;;;4925291;28;86875;-87
2021/04/21 04:46:27;;;;;;;61.28;58.20;;;4.70;99.90;;;;;;4920315;28;87110;-87
2021/04/21 04:48:59;;;;;;;;;;;4.70;99.90;;;;;;4927453;28;86091;-87
2021/04/21 04:51:25;;;;;;;41.47;38.97;;;;;;;;;;4928780;28;88179;-86
2021/04/21 04:53:52;;;;;;;40.08;37.85;;;4.70;99.90;;;;;;4926269;28;88981;-86
2021/04/21 04:56:19;;;;;;;49.60;46.80;;;4.80;99.90;;;;;;4920187;28;87836;-85
2021/04/21 04:58:47;;;;;;;46.13;43.45;;;4.80;99.90;;;;;;4929746;28;86685;-86
2021/04/21 05:01:15;;;;;;;36.40;33.42;;;4.80;99.90;;;;;;4925303;28;87164;-87
2021/04/21 05:03:56;;;;;;;27.50;25.58;;;4.90;99.90;;;;;;4924367;28;87380;-87
2021/04/21 05:06:32;;;;;;;21.63;19.88;;;4.90;99.90;;;;;;4920818;28;86814;-87
2021/04/21 05:09:03;;;;;;;19.02;17.13;;;5.00;99.90;;;;;;4928045;28;86250;-87
2021/04/21 05:11:31;;;;;;;16.00;13.05;;;5.00;99.90;;;;;;4925944;28;87468;-87
2021/04/21 05:13:58;;;;;;;17.88;14.98;;;5.10;99.90;;;;;;4928722;28;86729;-85
2021/04/21 05:16:24;;;;;;;16.05;13.73;;;5.10;99.90;;;;;;4934609;28;87118;-86
2021/04/21 05:19:28;;;;;;;15.98;14.38;;;5.20;99.90;;;;;;4943365;28;86750;-83
2021/04/21 05:22:06;;;;;;;13.05;11.85;;;5.30;99.90;;;;;;4936387;28;88792;-85
2021/04/21 05:24:53;;;;;;;17.63;16.23;;;5.00;99.90;;;;;;4926934;28;88787;-86
2021/04/21 05:27:59;;;;;;;16.77;15.48;;;5.50;99.90;;;;;;4918556;28;86868;-86
2021/04/21 05:30:46;;;;;;;14.48;13.20;;;5.60;99.90;;;;;;4921844;28;86791;-86
2021/04/21 05:33:36;;;;;;;16.00;14.50;;;5.50;99.90;;;;;;4940375;28;88993;-87
2021/04/21 05:36:23;;;;;;;13.50;12.07;;;5.80;99.90;;;;;;4929512;28;89045;-86
2021/04/21 05:38:54;;;;;;;17.45;15.77;;;5.90;99.90;;;;;;4944760;28;86941;-87
2021/04/21 05:41:40;;;;;;;15.98;14.68;;;6.00;99.90;;;;;;4939735;28;86794;-87
2021/04/21 05:44:12;;;;;;;16.58;15.25;;;5.90;99.90;;;;;;4923104;28;86871;-87
2021/04/21 05:47:11;;;;;;;15.38;14.00;;;6.30;99.90;;;;;;4943493;28;86740;-82
2021/04/21 05:49:47;;;;;;;20.67;18.92;;;6.50;99.90;;;;;;4940305;28;87714;-84
2021/04/21 05:52:13;;;;;;;23.88;22.17;;;;;;;;;;4937039;28;86238;-85
2021/04/21 05:55:10;;;;;;;21.10;19.42;;;6.60;99.90;;;;;;4930475;28;86815;-86
2021/04/21 05:57:57;;;;;;;20.60;18.92;;;6.80;99.90;;;;;;4921171;28;86944;-87
2021/04/21 06:00:44;;;;;;;27.73;25.75;;;6.90;99.90;;;;;;4933261;28;87049;-86
2021/04/21 06:03:11;;;;;;;47.28;44.47;;;7.30;99.90;;;;;;4912473;28;87013;-86
2021/04/21 06:05:37;;;;;;;84.25;79.80;;;7.20;99.90;;;;;;4920156;28;87243;-84
2021/04/21 06:08:10;;;;;;;71.60;67.97;;;7.30;99.90;;;;;;4916465;28;86357;-85
2021/04/21 06:10:36;;;;;;;38.92;36.40;;;7.50;99.90;;;;;;4925374;28;86226;-85
2021/04/21 06:13:02;;;;;;;34.92;32.72;;;7.70;99.90;;;;;;4928392;28;87032;-85
2021/04/21 06:15:29;;;;;;;24.73;23.02;;;7.80;99.90;;;;;;4929411;28;87843;-85
2021/04/21 06:18:00;;;;;;;22.77;20.98;;;7.90;99.90;;;;;;4929359;28;87778;-84
2021/04/21 06:20:34;;;;;;;29.52;27.38;;;8.00;99.90;;;;;;4928524;28;87413;-83
2021/04/21 06:23:02;;;;;;;26.73;24.90;;;8.10;99.90;;;;;;4923470;28;86914;-85
2021/04/21 06:25:29;;;;;;;23.52;21.75;;;8.30;99.90;;;;;;4926973;28;87329;-85
2021/04/21 06:28:14;;;;;;;22.00;20.40;;;8.40;99.90;;;;;;4927999;28;86861;-85
2021/04/21 06:30:42;;;;;;;19.67;17.95;;;8.50;99.90;;;;;;4925611;28;86882;-84
2021/04/21 06:33:08;;;;;;;21.00;19.38;;;;;;;;;;4928117;28;85854;-85
2021/04/21 06:35:35;;;;;;;18.67;17.23;;;8.70;99.90;;;;;;4915171;28;88887;-85
2021/04/21 06:38:02;;;;;;;14.25;12.55;;;8.80;99.90;;;;;;4930514;28;87944;-85
2021/04/21 06:40:30;;;;;;;15.32;14.00;;;9.00;99.90;;;;;;4930413;28;88572;-86
2021/04/21 06:42:58;;;;;;;15.48;13.98;;;9.10;99.90;;;;;;4928114;28;87024;-85
2021/04/21 06:45:30;;;;;;;15.00;13.63;;;9.30;99.30;;;;;;4927889;28;87803;-84
2021/04/21 06:47:56;;;;;;;20.17;18.58;;;9.30;99.60;;;;;;4926801;28;87030;-86
2021/04/21 06:50:32;;;;;;;29.73;27.52;;;9.40;99.30;;;;;;4922861;28;86974;-85
2021/04/21 06:53:01;;;;;;;24.70;22.80;;;9.60;99.20;;;;;;4917007;28;87714;-86
2021/04/21 06:55:27;;;;;;;17.75;16.13;;;9.70;98.60;;;;;;4914664;28;89077;-85
2021/04/21 06:57:52;;;;;;;20.98;19.38;;;9.90;98.90;;;;;;4919284;28;86915;-84
2021/04/21 07:00:22;;;;;;;20.25;18.67;;;10.00;98.00;;;;;;4920824;28;87403;-86
2021/04/21 07:02:58;;;;;;;20.15;18.38;;;10.10;98.00;;;;;;4921879;28;88142;-86
2021/04/21 07:05:36;;;;;;;28.83;26.83;;;10.30;98.20;;;;;;4932905;28;88400;-86
2021/04/21 07:08:07;;;;;;;18.33;16.73;;;10.40;97.30;;;;;;4927082;28;89300;-86
2021/04/21 07:10:37;;;;;;;16.52;15.00;;;10.50;96.20;;;;;;4928493;28;86383;-86
2021/04/21 07:13:06;;;;;;;15.52;14.18;;;10.70;95.70;;;;;;4927113;28;86685;-86
2021/04/21 07:15:34;;;;;;;17.27;15.63;;;10.90;95.30;;;;;;4931727;28;87744;-86
2021/04/21 07:18:00;;;;;;;32.72;30.73;;;11.10;94.70;;;;;;4932990;28;87494;-87
2021/04/21 07:20:27;;;;;;;26.48;24.58;;;12.10;99.00;;;;;;4925565;28;86858;-86
2021/04/21 07:22:54;;;;;;;27.67;26.02;;;;;;;;;;4922877;28;86147;-88
2021/04/21 07:25:20;;;;;;;29.85;28.00;;;12.00;92.30;;;;;;4924041;28;90974;-87
2021/04/21 07:27:52;;;;;;;33.65;31.70;;;12.50;91.50;;;;;;4922122;28;87523;-87
2021/04/21 07:30:32;;;;;;;41.00;38.85;;;13.30;87.80;;;;;;4929335;28;87826;-88
2021/04/21 07:32:59;;;;;;;43.40;40.90;;;14.80;82.50;;;;;;4923086;28;86931;-88
2021/04/21 07:35:26;;;;;;;50.40;47.42;;;16.90;73.70;;;;;;4925673;28;87286;-88
2021/04/21 07:37:55;;;;;;;34.33;31.88;;;19.00;62.80;;;;;;4926741;28;88084;-90
2021/04/21 07:40:27;;;;;;;25.50;23.88;;;20.80;53.80;;;;;;4946391;28;86108;-88
2021/04/21 07:43:11;;;;;;;45.20;42.90;;;22.40;49.10;;;;;;4933309;28;86961;-88
2021/04/21 07:45:50;;;;;;;55.45;52.92;;;23.80;43.50;;;;;;4932379;28;87078;-85
2021/04/21 07:48:34;;;;;;;49.40;46.92;;;25.20;41.80;;;;;;4924936;28;87575;-87
2021/04/21 07:54:06;;;;;;;50.92;48.15;;;28.00;36.50;;;;;;4928679;28;86315;-89
2021/04/21 07:56:55;;;;;;;134.05;128.30;;;28.80;35.10;;;;;;4929132;28;87707;-87
2021/04/21 07:59:27;;;;;;;88.28;84.15;;;30.10;33.40;;;;;;4927984;28;89162;-88
2021/04/21 08:02:07;;;;;;;76.00;72.63;;;30.70;32.60;;;;;;4925965;28;87378;-88
2021/04/21 08:04:34;;;;;;;;;;;31.10;32.60;;;;;;4926054;28;86986;-90
2021/04/21 08:07:01;;;;;;;107.10;102.40;;;32.00;30.60;;;;;;4917263;28;88664;-89
2021/04/21 08:09:34;;;;;;;76.68;73.38;;;32.60;31.40;;;;;;4923577;28;86853;-88
2021/04/21 08:12:13;;;;;;;153.95;147.40;;;33.40;28.80;;;;;;4917164;28;87697;-89
2021/04/21 08:15:03;;;;;;;50.25;47.83;;;33.40;28.80;;;;;;4920382;28;86379;-89
2021/04/21 08:17:30;;;;;;;61.50;58.67;;;33.90;28.50;;;;;;4923393;28;92059;-88
2021/04/21 08:19:58;;;;;;;140.90;135.10;;;34.50;29.00;;;;;;4917987;28;87294;-89
2021/04/21 08:22:29;;;;;;;70.05;66.95;;;35.00;27.90;;;;;;4924326;28;87992;-90
2021/04/21 08:24:57;;;;;;;174.23;167.40;;;35.40;27.50;;;;;;4916590;28;86883;-90
2021/04/21 08:27:24;;;;;;;82.03;78.32;;;35.60;27.40;;;;;;4921953;28;86976;-86
2021/04/21 08:29:51;;;;;;;279.60;267.63;;;36.10;27.60;;;;;;4929342;28;86799;-86
2021/04/21 08:32:25;;;;;;;331.42;317.60;;;36.50;27.10;;;;;;4918269;28;87744;-87
2021/04/21 08:34:52;;;;;;;245.25;234.82;;;37.20;27.20;;;;;;4922276;28;87021;-86
2021/04/21 08:37:19;;;;;;;143.43;137.32;;;37.90;26.90;;;;;;4927794;28;87448;-86
2021/04/21 08:39:45;;;;;;;103.18;98.82;;;38.30;26.70;;;;;;4935820;28;87037;-88
2021/04/21 08:42:12;;;;;;;100.05;95.32;;;38.70;26.30;;;;;;4920856;28;86827;-88
2021/04/21 08:44:43;;;;;;;230.50;220.50;;;39.50;25.80;;;;;;4924358;28;87147;-88
2021/04/21 08:47:14;;;;;;;79.85;76.07;;;39.40;26.10;;;;;;4912662;28;90367;-87
2021/04/21 08:49:41;;;;;;;31.17;29.50;;;39.90;25.50;;;;;;4929686;28;87340;-87
2021/04/21 08:52:08;;;;;;;225.90;216.02;;;40.10;25.00;;;;;;4920568;28;87024;-87
2021/04/21 08:54:35;;;;;;;191.85;183.52;;;40.20;25.50;;;;;;4918068;28;87472;-86
2021/04/21 08:57:02;;;;;;;84.93;81.20;;;40.40;25.30;;;;;;4921803;28;88039;-87
2021/04/21 08:59:28;;;;;;;61.30;58.45;;;40.40;25.20;;;;;;4925791;28;87114;-86
2021/04/21 09:01:57;;;;;;;85.47;81.65;;;40.50;25.10;;;;;;4928867;28;86652;-87
2021/04/21 09:04:23;;;;;;;156.13;149.73;;;40.60;24.80;;;;;;4918873;28;86003;-88
2021/04/21 09:06:49;;;;;;;285.92;274.52;;;40.90;24.60;;;;;;4923312;28;86888;-88
2021/04/21 09:09:16;;;;;;;118.88;113.88;;;41.10;24.60;;;;;;4920026;28;88562;-88
2021/04/21 09:11:42;;;;;;;222.63;213.63;;;41.30;24.50;;;;;;4911590;28;87881;-87
2021/04/21 09:14:08;;;;;;;213.60;205.07;;;41.50;24.60;;;;;;4920108;28;87023;-86
2021/04/21 09:16:35;;;;;;;122.65;117.45;;;41.80;24.60;;;;;;4929025;28;90129;-87
2021/04/21 09:19:15;;;;;;;165.35;158.55;;;42.00;24.60;;;;;;4924235;28;87493;-86
2021/04/21 09:21:41;;;;;;;188.88;181.20;;;42.30;24.30;;;;;;4925064;28;86733;-86
2021/04/21 09:24:12;;;;;;;85.80;81.95;;;42.60;24.50;;;;;;4924612;28;87049;-85
2021/04/21 09:26:38;;;;;;;82.68;78.75;;;42.70;24.40;;;;;;4923623;28;91777;-84
2021/04/21 09:29:04;;;;;;;76.55;73.03;;;43.00;23.80;;;;;;4925694;28;86966;-86
2021/04/21 09:31:32;;;;;;;64.15;61.20;;;43.00;24.30;;;;;;4924124;28;86943;-85
2021/04/21 09:34:15;;;;;;;41.38;39.20;;;43.00;24.10;;;;;;4927240;28;87393;-85
2021/04/21 09:36:44;;;;;;;67.75;64.65;;;42.90;23.90;;;;;;4925947;28;87882;-86
2021/04/21 09:39:16;;;;;;;106.20;101.60;;;43.00;24.10;;;;;;4922932;28;87941;-86
2021/04/21 09:41:43;;;;;;;55.28;52.67;;;42.80;23.50;;;;;;4927442;28;86958;-86
2021/04/21 09:44:19;;;;;;;80.05;76.35;;;43.10;23.60;;;;;;4923766;28;87603;-86
2021/04/21 09:46:47;;;;;;;98.65;94.35;;;42.60;23.40;;;;;;4924720;28;87868;-86
2021/04/21 09:49:33;;;;;;;114.72;109.95;;;43.00;23.50;;;;;;4935047;28;87841;-86
2021/04/21 09:52:11;;;;;;;68.55;65.65;;;43.20;23.30;;;;;;4941087;28;86198;-86
2021/04/21 09:54:41;;;;;;;83.95;80.10;;;43.40;23.20;;;;;;4939352;28;86120;-86
2021/04/21 09:57:27;;;;;;;237.98;228.52;;;43.60;23.20;;;;;;4925098;28;87093;-86
2021/04/21 10:00:07;;;;;;;201.25;193.20;;;43.60;23.20;;;;;;4945403;28;87168;-86
2021/04/21 10:02:32;;;;;;;135.57;129.77;;;43.40;23.20;;;;;;4939245;28;87370;-86
2021/04/21 10:05:18;;;;;;;76.32;72.93;;;43.60;23.00;;;;;;4936533;28;86251;-86
2021/04/21 10:07:44;;;;;;;120.03;114.88;;;43.30;23.30;;;;;;4919640;28;88880;-86
2021/04/21 10:10:10;;;;;;;80.00;76.15;;;43.60;22.90;;;;;;4921490;28;86965;-86
2021/04/21 10:12:39;;;;;;;52.83;50.17;;;44.00;22.70;;;;;;4922116;28;87084;-86
2021/04/21 10:15:08;;;;;;;;;;;43.80;22.90;;;;;;4924257;28;87315;-86
2021/04/21 10:17:39;;;;;;;;;;;43.20;22.60;;;;;;4923875;28;88677;-85
2021/04/21 10:20:11;;;;;;;57.53;55.00;;;43.20;22.40;;;;;;4924443;28;87219;-87
2021/04/21 10:22:38;;;;;;;60.97;58.17;;;43.00;22.70;;;;;;4923165;28;87217;-86
2021/04/21 10:25:06;;;;;;;72.30;69.15;;;43.00;22.30;;;;;;4922563;28;86919;-87
2021/04/21 10:27:34;;;;;;;156.82;150.32;;;43.50;22.50;;;;;;4926473;28;88135;-87
2021/04/21 10:30:02;;;;;;;59.97;57.33;;;43.90;22.10;;;;;;4927396;28;90231;-86
2021/04/21 10:32:28;;;;;;;48.60;46.35;;;43.60;21.70;;;;;;4922579;28;87393;-86
2021/04/21 10:34:55;;;;;;;46.67;44.47;;;43.50;22.00;;;;;;4925729;28;87154;-86
2021/04/21 10:37:21;;;;;;;55.67;53.17;;;43.60;22.40;;;;;;4921043;28;87030;-86
2021/04/21 10:39:52;;;;;;;118.30;113.57;;;43.90;22.20;;;;;;4927377;28;87255;-86
2021/04/21 10:42:20;;;;;;;104.28;99.88;;;43.40;22.00;;;;;;4922324;28;87058;-86
2021/04/21 10:44:48;;;;;;;105.45;101.10;;;43.60;22.30;;;;;;4919238;28;86688;-86
2021/04/21 10:47:18;;;;;;;101.85;97.53;;;43.40;21.70;;;;;;4925396;28;86780;-86
2021/04/21 10:50:04;;;;;;;79.00;75.60;;;43.40;22.00;;;;;;4919197;28;91915;-86
2021/04/21 10:52:29;;;;;;;62.25;59.55;;;43.30;22.00;;;;;;4919885;28;88006;-86
2021/04/21 10:55:07;;;;;;;60.58;57.80;;;43.10;22.00;;;;;;4922843;28;86968;-87
2021/04/21 10:57:37;;;;;;;69.03;65.88;;;43.50;22.20;;;;;;4909297;28;87239;-86
2021/04/21 11:00:16;;;;;;;63.03;60.17;;;43.30;22.60;;;;;;4920822;28;87050;-85
2021/04/21 11:02:43;;;;;;;;;;;43.10;22.40;;;;;;4925954;28;86923;-86
2021/04/21 11:05:11;;;;;;;44.55;42.50;;;42.60;22.80;;;;;;4926258;28;86981;-85
2021/04/21 11:07:43;;;;;;;59.85;57.15;;;42.90;22.90;;;;;;4919045;28;88156;-85
2021/04/21 11:10:30;;;;;;;99.03;94.63;;;43.40;22.70;;;;;;4921846;28;86269;-85
2021/04/21 11:12:56;;;;;;;136.52;130.88;;;43.70;22.10;;;;;;4917273;28;86886;-85
2021/04/21 11:15:34;;;;;;;207.63;199.35;;;43.30;22.30;;;;;;4921866;28;86758;-85
2021/04/21 11:18:09;;;;;;;111.97;107.15;;;43.00;22.40;;;;;;4922566;28;88999;-86
2021/04/21 11:20:47;;;;;;;129.77;124.35;;;42.90;22.70;;;;;;4924002;28;89422;-86
2021/04/21 11:28:59;;;;;;;84.82;81.22;;;43.30;22.20;;;;;;4923699;28;87406;-87
2021/04/21 11:31:45;;;;;;;120.15;115.13;;;43.60;21.80;;;;;;4919627;28;87838;-88
2021/04/21 11:34:14;;;;;;;184.40;176.73;;;43.00;21.90;;;;;;4913160;28;87259;-86
2021/04/21 11:37:01;;;;;;;148.85;142.25;;;42.20;21.70;;;;;;4921264;28;86974;-87
2021/04/21 11:39:42;;;;;;;200.63;192.02;;;42.40;22.00;;;;;;4926948;28;87646;-86
2021/04/21 11:42:30;;;;;;;179.68;171.90;;;41.50;22.20;;;;;;4931177;28;88051;-87
2021/04/21 11:45:19;;;;;;;199.82;191.35;;;40.70;22.50;;;;;;4925556;28;88025;-86
2021/04/21 11:48:04;;;;;;;156.73;150.35;;;39.00;22.60;;;;;;4919455;28;86921;-86
2021/04/21 11:50:32;;;;;;;54.95;52.33;;;37.40;23.70;;;;;;4919352;28;89723;-86
2021/04/21 11:53:02;;;;;;;33.75;31.85;;;36.10;24.00;;;;;;4921601;28;86900;-86
2021/04/21 11:55:44;;;;;;;31.15;29.35;;;35.20;24.50;;;;;;4928516;28;86973;-86
2021/04/21 11:58:38;;;;;;;150.15;143.98;;;34.40;24.20;;;;;;4918629;28;86987;-87
2021/04/21 12:01:10;;;;;;;96.10;91.85;;;34.20;24.70;;;;;;4919896;28;88765;-86
2021/04/21 12:03:43;;;;;;;122.82;117.40;;;34.60;24.30;;;;;;4927480;28;87441;-86
2021/04/21 12:06:15;;;;;;;71.07;67.80;;;34.70;24.80;;;;;;4924207;28;86857;-87
2021/04/21 12:08:45;;;;;;;91.13;87.07;;;35.60;24.90;;;;;;4925985;28;87186;-86
2021/04/21 12:11:10;;;;;;;64.70;61.65;;;36.20;24.90;;;;;;4922225;28;89471;-87
2021/04/21 12:13:46;;;;;;;98.63;94.45;;;36.70;24.40;;;;;;4922044;28;87230;-87
2021/04/21 12:16:18;;;;;;;159.63;153.20;;;36.60;24.00;;;;;;4917652;28;87225;-87
2021/04/21 12:18:49;;;;;;;171.40;164.63;;;35.20;23.60;;;;;;4919948;28;86902;-86
2021/04/21 12:21:15;;;;;;;217.20;208.77;;;33.30;23.70;;;;;;4918269;28;86953;-86
2021/04/21 12:23:42;;;;;;;68.00;64.78;;;31.10;25.00;;;;;;4918116;28;87229;-86
2021/04/21 12:26:16;;;;;;;67.25;64.03;;;29.50;25.90;;;;;;4924206;28;86808;-86
2021/04/21 12:28:56;;;;;;;70.65;67.20;;;27.80;27.10;;;;;;4925870;28;86147;-86
2021/04/21 12:31:23;;;;;;;67.27;64.27;;;26.40;27.40;;;;;;4920682;28;87922;-85
2021/04/21 12:33:50;;;;;;;151.48;145.30;;;24.90;27.40;;;;;;4921035;28;87975;-85
2021/04/21 12:36:18;;;;;;;39.15;37.30;;;23.30;28.50;;;;;;4919896;28;87872;-85
2021/04/21 12:39:08;;;;;;;26.67;25.45;;;22.40;29.80;;;;;;4918441;28;87020;-86
2021/04/21 12:41:39;;;;;;;59.20;56.70;;;21.30;30.50;;;;;;4923058;28;87050;-87
2021/04/21 12:44:22;;;;;;;39.13;37.42;;;20.80;30.50;;;;;;4924520;28;87912;-86
2021/04/21 12:46:49;;;;;;;30.27;28.98;;;20.50;29.60;;;;;;4923355;28;87023;-87
2021/04/21 12:49:26;;;;;;;15.52;14.63;;;20.40;29.40;;;;;;4927901;28;86937;-86
2021/04/21 12:51:52;;;;;;;34.05;32.33;;;20.50;29.00;;;;;;4922648;28;86828;-86
2021/04/21 12:54:42;;;;;;;85.57;81.97;;;20.60;28.90;;;;;;4925497;28;88375;-86
2021/04/21 12:57:10;;;;;;;66.93;64.10;;;20.40;31.70;;;;;;4922451;28;86982;-86
2021/04/21 12:59:47;;;;;;;125.03;119.70;;;20.30;29.90;;;;;;4925660;28;86663;-85
2021/04/21 13:02:16;;;;;;;127.15;121.80;;;20.10;29.80;;;;;;4923340;28;89221;-86
2021/04/21 13:04:47;;;;;;;23.70;22.40;;;19.70;33.90;;;;;;4924356;28;88700;-86
2021/04/21 13:07:22;;;;;;;37.28;35.42;;;19.70;34.20;;;;;;4932675;28;86941;-86
2021/04/21 13:09:49;;;;;;;21.45;20.15;;;19.60;35.20;;;;;;4936016;28;86507;-86
2021/04/21 13:12:24;;;;;;;18.23;16.90;;;19.70;35.70;;;;;;4936614;28;87646;-86
2021/04/21 13:14:51;;;;;;;24.35;23.15;;;19.80;35.30;;;;;;4932033;28;88086;-87
2021/04/21 13:17:17;;;;;;;45.78;43.70;;;19.90;35.00;;;;;;4926471;28;86458;-84
2021/04/21 13:19:54;;;;;;;55.75;53.10;;;20.00;35.20;;;;;;4931766;28;86106;-86
2021/04/21 13:22:27;;;;;;;40.00;38.03;;;20.10;35.20;;;;;;4935479;28;87417;-86
2021/04/21 13:24:56;;;;;;;29.25;27.80;;;20.10;34.80;;;;;;4940599;28;87464;-86
2021/04/21 13:27:33;;;;;;;19.50;18.10;;;20.00;34.00;;;;;;4930624;28;87943;-86
2021/04/21 13:30:10;;;;;;;16.75;15.95;;;19.80;34.10;;;;;;4921093;28;87100;-86
2021/04/21 13:32:38;;;;;;;32.17;30.58;;;19.50;32.20;;;;;;4927188;28;87692;-86
2021/04/21 13:35:06;;;;;;;19.23;18.13;;;19.30;31.20;;;;;;4922116;28;87171;-86
2021/04/21 13:37:32;;;;;;;36.78;35.22;;;18.50;32.30;;;;;;4931088;28;86812;-86
2021/04/21 13:40:03;;;;;;;21.90;20.92;;;18.80;33.20;;;;;;4915639;28;87058;-86
2021/04/21 13:42:29;;;;;;;39.17;37.40;;;18.10;33.20;;;;;;4928706;28;86781;-86
2021/04/21 13:44:56;;;;;;;30.40;28.95;;;18.40;33.40;;;;;;4927877;28;87388;-86
2021/04/21 13:47:21;;;;;;;16.73;15.73;;;18.60;32.10;;;;;;4929205;28;86926;-85
2021/04/21 13:49:47;;;;;;;20.55;19.58;;;18.70;32.00;;;;;;4925002;28;87033;-86
2021/04/21 13:52:13;;;;;;;23.40;22.30;;;18.90;32.10;;;;;;4920762;28;88339;-86
2021/04/21 13:54:40;;;;;;;20.55;19.65;;;18.70;32.40;;;;;;4922608;28;88951;-87
2021/04/21 13:57:06;;;;;;;16.08;15.23;;;19.30;31.30;;;;;;4928178;28;86992;-86
2021/04/21 13:59:32;;;;;;;14.75;13.85;;;19.20;31.70;;;;;;4916667;28;86524;-86
2021/04/21 14:01:57;;;;;;;19.35;18.45;;;20.00;30.30;;;;;;4926420;28;87264;-86
2021/04/21 14:04:23;;;;;;;19.23;18.33;;;20.50;30.30;;;;;;4924798;28;87027;-86
2021/04/21 14:06:49;;;;;;;19.67;18.38;;;21.60;30.30;;;;;;4951581;28;86239;-86
2021/04/21 14:09:23;;;;;;;19.45;18.60;;;21.40;30.80;;;;;;4945281;28;85525;-86
2021/04/21 14:11:49;;;;;;;51.25;49.05;;;22.80;28.70;;;;;;4914945;28;87183;-88
2021/04/21 14:14:15;;;;;;;21.20;20.30;;;22.90;29.00;;;;;;4930845;28;87234;-88
2021/04/21 14:16:40;;;;;;;33.53;32.10;;;25.00;25.90;;;;;;4945921;28;87067;-89
2021/04/21 14:19:06;;;;;;;19.52;18.63;;;25.90;26.20;;;;;;4947289;28;87442;-88
2021/04/21 14:21:34;;;;;;;63.35;60.75;;;26.00;26.70;;;;;;4936404;28;86955;-88
2021/04/21 14:24:00;;;;;;;42.13;40.40;;;26.90;27.00;;;;;;4921838;28;87177;-88
2021/04/21 14:26:26;;;;;;;53.20;50.97;;;27.70;25.70;;;;;;4921961;28;87086;-88
2021/04/21 14:28:51;;;;;;;182.10;174.50;;;28.60;24.20;;;;;;4921602;28;87003;-87
2021/04/21 14:31:17;;;;;;;194.35;186.73;;;28.40;24.80;;;;;;4927086;28;87270;-88
2021/04/21 14:33:43;;;;;;;90.55;86.78;;;28.40;26.10;;;;;;4925070;28;87392;-88
2021/04/21 14:36:10;;;;;;;79.32;76.03;;;28.20;25.50;;;;;;4925052;28;87290;-87
2021/04/21 14:38:35;;;;;;;168.50;161.77;;;27.50;25.60;;;;;;4926506;28;87076;-87
2021/04/21 14:41:01;;;;;;;81.13;77.60;;;27.00;27.60;;;;;;4933200;28;89359;-87
2021/04/21 14:43:27;;;;;;;35.58;33.97;;;26.50;28.00;;;;;;4923759;28;87970;-87
2021/04/21 14:45:53;;;;;;;25.88;24.58;;;26.10;28.50;;;;;;4918650;28;86997;-87
2021/04/21 14:48:18;;;;;;;31.75;30.15;;;26.10;28.80;;;;;;4924997;28;87723;-87
2021/04/21 14:50:44;;;;;;;51.83;49.35;;;26.00;29.10;;;;;;4926800;28;87167;-87
2021/04/21 14:53:11;;;;;;;76.95;73.60;;;26.10;29.10;;;;;;4926051;28;88057;-87
2021/04/21 14:55:38;;;;;;;71.63;68.65;;;26.00;29.50;;;;;;4928779;28;86949;-86
2021/04/21 14:58:04;;;;;;;68.82;65.93;;;25.90;29.50;;;;;;4929339;28;86139;-87
2021/04/21 15:00:30;;;;;;;66.32;63.60;;;26.10;29.70;;;;;;4924331;28;88154;-87
2021/04/21 15:02:55;;;;;;;45.42;43.53;;;26.20;29.60;;;;;;4923943;28;87283;-87
2021/04/21 15:05:21;;;;;;;46.33;44.30;;;26.20;29.60;;;;;;4925948;28;87896;-86
2021/04/21 15:07:52;;;;;;;26.98;25.50;;;26.20;29.20;;;;;;4924046;28;86880;-87
2021/04/21 15:10:18;;;;;;;28.70;27.25;;;26.10;29.20;;;;;;4918271;28;87560;-87
2021/04/21 15:12:47;;;;;;;36.00;34.42;;;25.80;29.00;;;;;;4928775;28;86802;-86
2021/04/21 15:15:13;;;;;;;79.78;76.47;;;25.30;29.60;;;;;;4921325;28;87107;-86
2021/04/21 15:17:45;;;;;;;41.28;39.28;;;24.90;30.10;;;;;;4923677;28;87073;-87
2021/04/21 15:20:13;;;;;;;37.80;36.03;;;24.60;30.80;;;;;;4932234;28;87373;-87
2021/04/21 15:22:42;;;;;;;34.83;32.95;;;24.60;30.50;;;;;;4926727;28;86499;-86
2021/04/21 15:25:14;;;;;;;43.08;41.15;;;24.50;30.20;;;;;;4926821;28;87098;-86
2021/04/21 15:27:40;;;;;;;48.15;45.95;;;24.30;30.30;;;;;;4927861;28;87136;-87
2021/04/21 15:30:08;;;;;;;67.25;64.38;;;24.40;31.00;;;;;;4931530;28;89361;-87
2021/04/21 15:32:34;;;;;;;45.08;43.13;;;24.30;30.90;;;;;;4923980;28;87942;-86
2021/04/21 15:35:01;;;;;;;97.18;93.03;;;24.20;29.80;;;;;;4928607;28;86949;-86
2021/04/21 15:37:29;;;;;;;74.53;71.22;;;23.90;29.60;;;;;;4923926;28;88666;-87
2021/04/21 15:40:00;;;;;;;69.43;66.53;;;23.80;29.40;;;;;;4924746;28;86910;-86
2021/04/21 15:42:27;;;;;;;98.82;94.72;;;23.70;30.10;;;;;;4931036;28;87139;-87
2021/04/21 15:44:53;;;;;;;72.63;69.63;;;23.60;30.10;;;;;;4920791;28;87014;-87
2021/04/21 15:47:20;;;;;;;62.60;59.75;;;23.50;30.70;;;;;;4929158;28;86490;-87